Time;durP1;ratioP1;P1;durP2;ratioP2;P2;SDS_P1;SDS_P2;PMS_P1;PMS_P2;Temp;Humidity;BMP_temperature;BMP_pressure;BME280_temperature;BME280_humidity;BME280_pressure;Samples;Min_cycle;Max_cycle;Signal;HPM_P1;HPM_P2
2022/01/14 00:02:24;;;;;;;123.97;28.65;;;;;;;3.97;100.00;103722.44;5034932;28;20037;-45
2022/01/14 00:04:49;;;;;;;118.50;27.25;;;;;;;4.00;100.00;103716.13;5033874;28;20075;-45
2022/01/14 00:07:17;;;;;;;118.60;27.75;;;;;;;4.02;100.00;103716.94;5034945;28;20056;-45
2022/01/14 00:09:42;;;;;;;105.90;25.48;;;;;;;4.04;100.00;103707.06;5033935;28;20029;-45
2022/01/14 00:12:16;;;;;;;104.88;25.42;;;;;;;4.04;100.00;103707.06;5035240;28;20105;-46
2022/01/14 00:14:45;;;;;;;98.93;26.13;;;;;;;4.04;100.00;103704.41;5035030;28;20052;-45
2022/01/14 00:17:16;;;;;;;101.80;24.50;;;;;;;4.03;100.00;103699.13;5035021;28;20033;-46
2022/01/14 00:19:42;;;;;;;94.40;25.73;;;;;;;3.98;100.00;103691.38;5034885;28;20037;-46
2022/01/14 00:22:13;;;;;;;105.93;24.55;;;;;;;3.95;100.00;103691.50;5050028;28;20473;-45
2022/01/14 00:33:02;;;;;;;116.22;26.02;;;;;;;3.73;100.00;103683.59;5034560;28;20044;-46
2022/01/14 00:35:28;;;;;;;105.95;26.63;;;;;;;3.72;100.00;103666.75;5034512;28;20033;-45
2022/01/14 00:37:54;;;;;;;124.80;28.88;;;;;;;3.67;100.00;103668.75;5034461;28;20191;-46
2022/01/14 00:40:19;;;;;;;106.78;26.55;;;;;;;3.69;100.00;103660.69;5034376;28;20030;-44
2022/01/14 00:42:45;;;;;;;109.75;28.10;;;;;;;3.69;100.00;103658.88;5033487;28;20029;-44
2022/01/14 00:45:11;;;;;;;98.10;26.73;;;;;;;3.69;100.00;103658.03;5034604;28;20060;-46
2022/01/14 00:47:37;;;;;;;110.45;28.33;;;;;;;3.71;100.00;103662.38;5034598;28;20108;-46
2022/01/14 00:50:13;;;;;;;102.85;27.30;;;;;;;3.72;100.00;103665.88;5034642;28;20032;-44
2022/01/14 00:52:40;;;;;;;106.50;28.73;;;;;;;3.74;100.00;103659.56;5033732;28;20421;-46
2022/01/14 00:55:08;;;;;;;113.97;29.27;;;;;;;3.76;100.00;103661.28;5034955;28;20108;-45
2022/01/14 01:00:18;;;;;;;114.68;28.83;;;;;;;3.70;100.00;103652.63;5034631;28;20417;-44
2022/01/14 01:02:44;;;;;;;108.97;30.42;;;;;;;3.69;100.00;103653.56;5034694;28;20447;-46
2022/01/14 01:05:12;;;;;;;109.43;30.27;;;;;;;3.68;100.00;103654.47;5034041;28;20148;-45
2022/01/14 01:07:39;;;;;;;103.72;29.83;;;;;;;3.63;100.00;103651.16;5034437;28;20029;-46
2022/01/14 01:10:05;;;;;;;110.60;29.70;;;;;;;3.62;100.00;103644.09;5049560;28;20124;-46
2022/01/14 01:15:06;;;;;;;96.75;28.63;;;;;;;3.51;100.00;103627.75;5036632;28;20044;-45
2022/01/14 01:17:33;;;;;;;108.60;29.15;;;;;;;3.49;100.00;103635.78;5034123;28;20029;-45
2022/01/14 01:20:00;;;;;;;104.78;29.38;;;;;;;3.46;100.00;103632.41;5032233;28;20072;-46
2022/01/14 01:22:25;;;;;;;107.00;30.08;;;;;;;3.47;100.00;103623.47;5033717;28;20117;-45
2022/01/14 01:24:50;;;;;;;109.53;28.15;;;;;;;3.47;100.00;103615.47;5032403;28;20104;-45
2022/01/14 01:27:19;;;;;;;111.63;31.35;;;;;;;3.47;100.00;103610.16;5035101;28;20128;-44
2022/01/14 01:29:55;;;;;;;105.43;29.70;;;;;;;3.46;100.00;103614.63;5033673;28;20025;-45
2022/01/14 01:32:21;;;;;;;106.03;29.83;;;;;;;3.47;100.00;103610.16;5033756;28;20032;-45
2022/01/14 01:34:46;;;;;;;103.22;28.20;;;;;;;3.46;100.00;103608.44;5033621;28;20025;-45
2022/01/14 01:37:12;;;;;;;101.72;28.17;;;;;;;3.43;100.00;103609.44;5033230;28;20049;-45
2022/01/14 01:39:37;;;;;;;99.45;28.65;;;;;;;3.43;100.00;103614.75;5032466;28;20029;-44
2022/01/14 01:42:08;;;;;;;93.53;27.85;;;;;;;3.42;100.00;103609.50;5031997;28;20032;-44
2022/01/14 01:44:34;;;;;;;96.00;28.25;;;;;;;3.40;100.00;103620.22;5033436;28;20385;-45
2022/01/14 01:47:00;;;;;;;109.85;28.63;;;;;;;3.41;100.00;103610.44;5033077;28;20497;-46
2022/01/14 01:49:29;;;;;;;102.80;29.00;;;;;;;3.41;100.00;103611.31;5033325;28;20033;-46
2022/01/14 01:51:54;;;;;;;94.43;28.08;;;;;;;3.43;100.00;103616.56;5033412;28;20397;-45
2022/01/14 01:54:21;;;;;;;112.57;31.42;;;;;;;3.43;100.00;103611.25;5033454;28;20022;-44
2022/01/14 01:56:47;;;;;;;105.28;28.20;;;;;;;3.44;100.00;103618.28;5031688;28;20414;-45
2022/01/14 01:59:12;;;;;;;115.57;30.98;;;;;;;3.42;100.00;103615.72;5032553;28;20068;-45
2022/01/14 02:01:39;;;;;;;104.55;29.63;;;;;;;3.43;100.00;103617.44;5033170;28;20044;-45
2022/01/14 02:04:04;;;;;;;108.57;27.23;;;;;;;3.40;100.00;103619.38;5033143;28;20030;-48
2022/01/14 02:06:30;;;;;;;103.18;28.98;;;;;;;3.42;100.00;103614.81;5031483;28;20615;-45
2022/01/14 02:08:55;;;;;;;96.68;28.33;;;;;;;3.42;100.00;103623.69;5032735;28;20436;-42
2022/01/14 02:11:21;;;;;;;124.78;28.30;;;;;;;3.39;100.00;103628.28;5032081;28;20033;-44
2022/01/14 02:13:49;;;;;;;97.63;27.63;;;;;;;3.36;100.00;103626.59;5032291;28;20491;-44
2022/01/14 02:16:30;;;;;;;;;;;;;;;3.36;100.00;103629.28;5033173;28;20025;-44
2022/01/14 02:19:15;;;;;;;101.57;29.70;;;;;;;3.35;100.00;103626.69;5032837;28;19909;-45
2022/01/14 02:27:04;;;;;;;115.60;30.17;;;;;;;3.48;100.00;103622.56;5019569;28;20107;-44
2022/01/14 02:29:29;;;;;;;120.75;32.38;;;;;;;3.50;100.00;103621.56;5032635;28;20059;-44
2022/01/14 02:31:55;;;;;;;131.65;31.30;;;;;;;3.52;100.00;103629.47;5031461;28;20473;-45
2022/01/14 02:34:20;;;;;;;112.38;31.70;;;;;;;3.56;100.00;103630.22;5032273;28;20029;-46
2022/01/14 02:36:47;;;;;;;107.88;29.58;;;;;;;3.55;100.00;103629.31;5047458;28;20078;-46
2022/01/14 02:39:14;;;;;;;161.60;31.77;;;;;;;3.56;100.00;103627.56;5032524;28;20037;-45
2022/01/14 02:41:41;;;;;;;116.75;32.13;;;;;;;3.52;100.00;103624.13;5031171;28;20026;-44
2022/01/14 02:44:09;;;;;;;103.97;29.50;;;;;;;3.50;100.00;103626.00;5031884;28;20033;-45
2022/01/14 02:46:40;;;;;;;;;;;;;;;3.45;100.00;103620.00;5031781;28;20029;-45
2022/01/14 02:49:06;;;;;;;160.20;30.20;;;;;;;3.43;100.00;103640.53;5032631;28;19935;-45
2022/01/14 02:51:31;;;;;;;106.13;29.30;;;;;;;3.41;100.00;103642.38;5032512;28;20457;-44
2022/01/14 02:54:00;;;;;;;102.85;28.95;;;;;;;3.39;100.00;103644.25;5032478;28;20048;-46
2022/01/14 02:56:33;;;;;;;118.07;31.58;;;;;;;3.38;100.00;103650.50;5032190;28;20025;-44
2022/01/14 02:59:00;;;;;;;102.63;29.95;;;;;;;3.37;100.00;103652.31;5032231;28;20029;-48
2022/01/14 03:01:27;;;;;;;109.80;28.80;;;;;;;3.34;100.00;103651.56;5032218;28;20509;-44
2022/01/14 03:03:56;;;;;;;114.00;30.40;;;;;;;3.26;100.00;103639.44;5031865;28;20440;-45
2022/01/14 03:06:22;;;;;;;121.70;30.40;;;;;;;3.21;100.00;103641.47;5031674;28;20432;-44
2022/01/14 03:08:47;;;;;;;104.25;29.63;;;;;;;3.22;100.00;103637.00;5031998;28;20017;-44
2022/01/14 03:11:29;;;;;;;116.78;30.85;;;;;;;3.17;100.00;103641.66;5030893;28;20029;-45
2022/01/14 03:13:54;;;;;;;103.15;30.08;;;;;;;3.20;100.00;103637.03;5031872;28;20056;-45
2022/01/14 03:16:21;;;;;;;113.68;30.52;;;;;;;3.19;100.00;103642.44;5030428;28;20021;-44
2022/01/14 03:18:50;;;;;;;101.95;31.17;;;;;;;3.18;100.00;103635.38;5032253;28;20068;-45
2022/01/14 03:21:17;;;;;;;96.20;30.40;;;;;;;3.16;100.00;103638.13;5032728;28;20092;-45
2022/01/14 03:23:47;;;;;;;107.10;32.28;;;;;;;3.17;100.00;103629.19;5035913;28;20033;-44
2022/01/14 03:26:17;;;;;;;95.68;31.33;;;;;;;3.17;100.00;103628.34;5034499;28;20021;-45
2022/01/14 03:28:43;;;;;;;119.95;33.85;;;;;;;3.16;100.00;103623.94;5035843;28;20033;-45
2022/01/14 03:31:09;;;;;;;122.18;31.60;;;;;;;3.15;100.00;103620.41;5035614;28;20362;-44
2022/01/14 03:33:35;;;;;;;123.57;33.78;;;;;;;3.14;100.00;103628.47;5036006;28;20105;-45
2022/01/14 03:36:01;;;;;;;102.07;32.15;;;;;;;3.16;100.00;103624.81;5035651;28;20113;-45
2022/01/14 03:38:26;;;;;;;120.90;31.85;;;;;;;3.13;100.00;103622.25;5034496;28;20057;-44
2022/01/14 03:40:51;;;;;;;125.22;31.23;;;;;;;3.12;100.00;103620.53;5035737;28;20028;-44
2022/01/14 03:43:17;;;;;;;106.60;30.48;;;;;;;3.15;100.00;103617.75;5035751;28;20076;-46
2022/01/14 03:45:43;;;;;;;131.02;32.92;;;;;;;3.16;100.00;103608.84;5034712;28;20029;-47
2022/01/14 03:48:08;;;;;;;100.63;31.20;;;;;;;3.19;100.00;103606.06;5035365;28;20041;-45
2022/01/14 03:50:35;;;;;;;108.38;31.77;;;;;;;3.22;100.00;103602.41;5035880;28;20045;-44
2022/01/14 03:53:01;;;;;;;100.18;30.70;;;;;;;3.24;100.00;103593.41;5035256;28;20040;-43
2022/01/14 03:55:26;;;;;;;105.22;31.05;;;;;;;3.25;100.00;103608.44;5034118;28;20366;-45
2022/01/14 03:57:51;;;;;;;109.70;33.22;;;;;;;3.24;100.00;103604.06;5035325;28;20036;-44
2022/01/14 04:00:18;;;;;;;205.15;32.33;;;;;;;3.18;100.00;103596.31;5034318;28;20037;-44
2022/01/14 04:02:44;;;;;;;113.95;31.10;;;;;;;3.14;100.00;103600.06;5035005;28;20033;-44
2022/01/14 04:05:10;;;;;;;217.77;31.73;;;;;;;3.15;100.00;103598.25;5034233;28;20548;-44
2022/01/14 04:07:35;;;;;;;167.35;32.13;;;;;;;3.19;100.00;103600.72;5034692;28;20084;-46
2022/01/14 04:10:02;;;;;;;157.90;30.20;;;;;;;3.15;100.00;103599.13;5035277;28;20079;-47
2022/01/14 04:12:45;;;;;;;231.85;30.67;;;;;;;3.13;100.00;103597.44;5035494;28;20030;-46
2022/01/14 04:17:55;;;;;;;184.82;31.27;;;;;;;3.04;100.00;103586.28;5043355;28;20511;-45
2022/01/14 04:20:21;;;;;;;112.72;29.00;;;;;;;3.07;100.00;103590.59;5034998;28;20034;-44
2022/01/14 04:22:48;;;;;;;78.40;27.33;;;;;;;3.06;100.00;103580.91;5035043;28;20017;-45
2022/01/14 04:25:13;;;;;;;173.15;30.55;;;;;;;3.06;100.00;103575.56;5035145;28;20048;-44
2022/01/14 04:27:39;;;;;;;87.15;28.27;;;;;;;3.09;100.00;103570.13;5034761;28;20477;-45
2022/01/14 04:30:04;;;;;;;101.68;28.88;;;;;;;3.09;100.00;103562.13;5034895;28;20040;-44
2022/01/14 04:32:30;;;;;;;110.97;28.67;;;;;;;3.07;100.00;103554.22;5034338;28;20362;-46
2022/01/14 04:34:55;;;;;;;174.77;31.58;;;;;;;2.99;100.00;103555.47;5014364;28;20037;-45
2022/01/14 04:37:22;;;;;;;117.35;29.33;;;;;;;2.98;100.00;103561.75;5014968;28;20029;-44
2022/01/14 04:39:47;;;;;;;78.80;27.75;;;;;;;3.00;100.00;103563.41;5033215;28;20052;-45
2022/01/14 04:42:12;;;;;;;70.93;26.95;;;;;;;2.99;100.00;103556.34;5034495;28;20477;-45
2022/01/14 04:44:38;;;;;;;91.65;28.40;;;;;;;2.98;100.00;103551.09;5034795;28;20395;-45
2022/01/14 04:47:15;;;;;;;67.60;26.25;;;;;;;2.97;100.00;103546.69;5034524;28;20458;-44
2022/01/14 04:49:40;;;;;;;97.03;27.92;;;;;;;2.94;100.00;103557.47;5033241;28;20032;-44
2022/01/14 04:52:07;;;;;;;73.80;26.50;;;;;;;2.95;100.00;103556.53;5034464;28;20029;-44
2022/01/14 04:54:32;;;;;;;71.85;25.48;;;;;;;2.88;100.00;103542.63;5049718;28;20068;-47
2022/01/14 04:56:57;;;;;;;83.72;27.63;;;;;;;2.81;100.00;103542.03;5034339;28;20029;-43
2022/01/14 04:59:23;;;;;;;79.38;27.08;;;;;;;2.80;100.00;103542.97;5033902;28;20466;-45
2022/01/14 05:01:49;;;;;;;62.38;25.88;;;;;;;2.78;100.00;103530.66;5032768;28;20033;-44
2022/01/14 05:04:15;;;;;;;64.68;26.00;;;;;;;2.72;100.00;103531.78;5034266;28;20033;-44
2022/01/14 05:06:43;;;;;;;84.95;25.52;;;;;;;2.67;100.00;103528.44;5049302;28;20045;-44
2022/01/14 05:09:18;;;;;;;64.45;24.40;;;;;;;2.65;100.00;103540.94;5033998;28;20084;-43
2022/01/14 05:11:52;;;;;;;76.07;25.80;;;;;;;2.61;100.00;103523.41;5033184;28;20056;-44
2022/01/14 05:14:17;;;;;;;79.55;25.52;;;;;;;2.58;100.00;103520.84;5034082;28;20175;-45
2022/01/14 05:16:42;;;;;;;71.50;25.25;;;;;;;2.59;100.00;103514.63;5034069;28;20100;-45
2022/01/14 05:19:08;;;;;;;112.22;29.13;;;;;;;2.57;100.00;103513.81;5033681;28;20465;-44
2022/01/14 05:21:33;;;;;;;62.95;25.27;;;;;;;2.57;100.00;103513.81;5032542;28;20587;-45
2022/01/14 05:23:58;;;;;;;71.70;26.35;;;;;;;2.57;100.00;103506.69;5032373;28;20041;-45
2022/01/14 05:26:24;;;;;;;67.05;25.08;;;;;;;2.52;100.00;103507.81;5033773;28;20022;-44
2022/01/14 05:28:49;;;;;;;80.53;27.45;;;;;;;2.50;100.00;103507.00;5033719;28;20132;-45
2022/01/14 05:31:14;;;;;;;207.48;26.15;;;;;;;2.45;100.00;103501.03;5032941;28;20547;-44
2022/01/14 05:33:41;;;;;;;70.03;25.40;;;;;;;2.38;100.00;103511.06;5032709;28;20045;-45
2022/01/14 05:36:07;;;;;;;67.60;26.48;;;;;;;2.38;100.00;103511.91;5034202;28;20037;-44
2022/01/14 05:38:32;;;;;;;76.05;24.85;;;;;;;2.38;100.00;103506.59;5033491;28;20033;-45
2022/01/14 05:40:58;;;;;;;111.32;27.02;;;;;;;2.42;100.00;103510.88;5033130;28;20029;-44
2022/01/14 05:43:23;;;;;;;78.38;26.73;;;;;;;2.46;100.00;103505.44;5033340;28;20038;-44
2022/01/14 05:45:48;;;;;;;133.10;28.33;;;;;;;2.42;100.00;103507.31;5032548;28;20037;-44
2022/01/14 05:48:14;;;;;;;109.57;28.60;;;;;;;2.43;100.00;103511.72;5032848;28;20037;-44
2022/01/14 05:50:39;;;;;;;85.68;26.33;;;;;;;2.48;100.00;103512.41;5033191;28;20044;-46
2022/01/14 05:53:06;;;;;;;107.28;25.30;;;;;;;2.46;100.00;103513.41;5033227;28;20500;-43
2022/01/14 05:55:32;;;;;;;156.03;28.13;;;;;;;2.43;100.00;103509.06;5032671;28;20033;-43
2022/01/14 05:57:57;;;;;;;116.15;26.83;;;;;;;2.38;100.00;103511.91;5031940;28;20296;-44
2022/01/14 06:00:23;;;;;;;91.93;25.45;;;;;;;2.39;100.00;103496.81;5033069;28;20029;-44
2022/01/14 06:02:49;;;;;;;74.20;25.30;;;;;;;2.35;100.00;103514.72;5032646;28;20094;-44
2022/01/14 06:05:15;;;;;;;62.28;23.45;;;;;;;2.30;100.00;103523.78;5032083;28;20032;-43
2022/01/14 06:07:40;;;;;;;63.58;23.90;;;;;;;2.27;100.00;103522.13;5033276;28;20025;-43
2022/01/14 06:10:06;;;;;;;60.17;23.08;;;;;;;2.26;100.00;103525.69;5032388;28;20449;-45
2022/01/14 06:12:31;;;;;;;63.20;24.33;;;;;;;2.26;100.00;103517.72;5032760;28;20433;-44
2022/01/14 06:14:57;;;;;;;66.32;25.20;;;;;;;2.25;100.00;103517.81;5032959;28;20076;-43
2022/01/14 06:17:22;;;;;;;76.03;28.38;;;;;;;2.24;100.00;103516.94;5032985;28;20060;-42
2022/01/14 06:19:48;;;;;;;72.65;27.23;;;;;;;2.23;100.00;103517.00;5032451;28;20420;-42
2022/01/14 06:22:13;;;;;;;57.67;24.50;;;;;;;2.23;100.00;103523.16;5032481;28;20040;-44
2022/01/14 06:24:38;;;;;;;55.85;25.20;;;;;;;2.15;100.00;103512.84;5032793;28;20032;-44
2022/01/14 06:27:04;;;;;;;64.28;26.63;;;;;;;2.13;100.00;103511.16;5032750;28;20033;-43
2022/01/14 06:29:29;;;;;;;69.13;27.52;;;;;;;2.16;100.00;103511.94;5032711;28;20037;-43
2022/01/14 06:31:55;;;;;;;69.07;25.95;;;;;;;2.20;100.00;103525.94;5032079;28;20075;-45
2022/01/14 06:34:21;;;;;;;60.70;26.52;;;;;;;2.20;100.00;103520.63;5032380;28;20499;-44
2022/01/14 06:36:47;;;;;;;62.22;25.45;;;;;;;2.18;100.00;103518.03;5032209;28;20026;-45
2022/01/14 06:39:12;;;;;;;59.58;24.77;;;;;;;2.21;100.00;103519.69;5032240;28;20043;-45
2022/01/14 06:41:37;;;;;;;64.03;25.13;;;;;;;2.19;100.00;103521.56;5030767;28;20108;-44
2022/01/14 06:44:04;;;;;;;62.92;26.50;;;;;;;2.17;100.00;103528.72;5029283;28;20895;-46
2022/01/14 06:46:30;;;;;;;62.05;27.15;;;;;;;2.15;100.00;103533.22;5027444;28;20041;-45
2022/01/14 06:48:55;;;;;;;75.25;30.52;;;;;;;2.10;100.00;103537.88;5024103;28;20476;-43
2022/01/14 06:51:21;;;;;;;69.30;28.02;;;;;;;2.11;100.00;103547.59;5040613;28;20499;-45
2022/01/14 06:53:46;;;;;;;61.80;25.17;;;;;;;2.10;100.00;103548.50;5030202;28;20033;-44
2022/01/14 06:56:14;;;;;;;56.47;22.95;;;;;;;2.09;100.00;103533.50;5012948;28;20109;-44
2022/01/14 06:58:39;;;;;;;52.53;24.17;;;;;;;2.11;100.00;103536.97;5026510;28;20390;-45
2022/01/14 07:01:05;;;;;;;62.33;24.40;;;;;;;2.14;100.00;103555.44;5029328;28;20287;-45
2022/01/14 07:03:30;;;;;;;58.47;24.45;;;;;;;2.13;100.00;103553.69;5029683;28;20075;-45
2022/01/14 07:05:56;;;;;;;58.50;26.15;;;;;;;2.12;100.00;103550.16;5030540;28;20493;-44
2022/01/14 07:08:22;;;;;;;59.03;24.02;;;;;;;2.15;100.00;103557.16;5030111;28;20080;-44
2022/01/14 07:10:47;;;;;;;63.05;25.92;;;;;;;2.22;100.00;103563.97;5025457;28;20069;-46
2022/01/14 07:13:13;;;;;;;68.38;24.17;;;;;;;2.27;100.00;103550.50;5030981;28;20456;-45
2022/01/14 07:15:38;;;;;;;59.58;24.27;;;;;;;2.32;100.00;103552.03;5028687;28;20512;-44
2022/01/14 07:18:03;;;;;;;62.22;24.73;;;;;;;2.42;100.00;103558.72;5030583;28;20030;-44
2022/01/14 07:20:29;;;;;;;68.60;27.20;;;;;;;2.51;100.00;103554.81;5030173;28;20087;-45
2022/01/14 07:22:54;;;;;;;65.85;26.05;;;;;;;2.57;100.00;103537.75;5031469;28;20029;-43
2022/01/14 07:25:20;;;;;;;71.88;28.02;;;;;;;2.65;100.00;103540.94;5031555;28;20072;-45
2022/01/14 07:27:46;;;;;;;67.35;25.00;;;;;;;2.74;100.00;103550.31;5031415;28;20025;-44
2022/01/14 07:30:14;;;;;;;60.70;25.13;;;;;;;2.79;100.00;103545.66;5031361;28;20040;-44
2022/01/14 07:32:40;;;;;;;57.45;25.10;;;;;;;2.88;100.00;103547.09;5030820;28;20049;-44
2022/01/14 07:35:05;;;;;;;57.10;23.98;;;;;;;2.90;100.00;103547.88;5011940;28;20061;-45
2022/01/14 07:37:31;;;;;;;66.68;26.48;;;;;;;2.93;100.00;103548.63;5022688;28;20053;-46
2022/01/14 07:39:56;;;;;;;69.95;27.80;;;;;;;2.95;100.00;103548.53;5031051;28;20036;-45
2022/01/14 07:42:21;;;;;;;57.50;26.10;;;;;;;3.03;100.00;103551.78;5029370;28;20430;-45
2022/01/14 07:44:47;;;;;;;69.70;26.95;;;;;;;3.12;100.00;103546.03;5031446;28;20496;-45
2022/01/14 07:47:12;;;;;;;69.13;26.02;;;;;;;3.23;100.00;103554.41;5030282;28;20037;-44
2022/01/14 07:49:37;;;;;;;64.78;25.55;;;;;;;3.30;100.00;103552.34;5029013;28;20025;-44
2022/01/14 07:52:03;;;;;;;64.60;25.80;;;;;;;3.37;100.00;103550.25;5031686;28;20029;-45
2022/01/14 07:54:29;;;;;;;66.88;25.17;;;;;;;3.40;100.00;103552.81;5030658;28;20112;-45
2022/01/14 07:56:57;;;;;;;59.88;23.33;;;;;;;3.52;100.00;103561.09;5030202;28;20440;-45
2022/01/14 07:59:24;;;;;;;61.15;25.67;;;;;;;3.60;100.00;103546.56;5031136;28;20116;-45
2022/01/14 08:01:51;;;;;;;86.07;31.13;;;;;;;3.63;100.00;103549.94;5028134;28;20101;-46
2022/01/14 08:04:18;;;;;;;76.38;27.45;;;;;;;3.71;100.00;103545.16;5031580;28;20049;-44
2022/01/14 08:06:49;;;;;;;87.87;29.47;;;;;;;3.74;100.00;103547.69;5046303;28;20068;-45
2022/01/14 08:09:15;;;;;;;76.85;29.70;;;;;;;3.80;100.00;103553.66;5050905;28;20056;-46
2022/01/14 08:11:42;;;;;;;75.78;29.10;;;;;;;3.86;100.00;103542.72;5033799;28;20112;-45
2022/01/14 08:14:07;;;;;;;88.93;30.75;;;;;;;3.91;100.00;103551.34;5034484;28;20029;-45
2022/01/14 08:16:32;;;;;;;69.30;30.00;;;;;;;3.97;100.00;103562.56;5033897;28;20017;-44
2022/01/14 08:18:58;;;;;;;79.05;30.05;;;;;;;4.06;100.00;103553.31;5034515;28;20037;-46
2022/01/14 08:21:23;;;;;;;77.00;30.17;;;;;;;4.21;100.00;103548.16;5034408;28;20108;-45
2022/01/14 08:23:48;;;;;;;83.00;31.00;;;;;;;4.17;100.00;103552.78;5034395;28;20104;-44
2022/01/14 08:26:14;;;;;;;109.97;37.72;;;;;;;4.23;100.00;103557.81;5034869;28;20091;-45
2022/01/14 08:28:39;;;;;;;99.43;38.08;;;;;;;4.41;100.00;103561.41;5034318;28;20025;-45
2022/01/14 08:31:05;;;;;;;121.72;44.75;;;;;;;4.61;100.00;103560.44;5034384;28;20029;-45
2022/01/14 08:33:30;;;;;;;121.40;46.00;;;;;;;4.78;100.00;103564.91;5033245;28;20029;-45
2022/01/14 08:35:55;;;;;;;121.85;42.28;;;;;;;4.90;100.00;103572.31;5034604;28;20098;-46
2022/01/14 08:38:21;;;;;;;113.80;44.30;;;;;;;5.00;100.00;103570.91;5034238;28;20112;-44
2022/01/14 08:40:47;;;;;;;107.05;43.53;;;;;;;5.01;100.00;103575.28;5034636;28;20025;-46
2022/01/14 08:43:12;;;;;;;110.53;43.75;;;;;;;5.05;100.00;103573.31;5034359;28;20387;-47
2022/01/14 08:45:38;;;;;;;104.03;43.72;;;;;;;5.09;100.00;103579.38;5032254;28;20025;-46
2022/01/14 08:48:04;;;;;;;105.15;42.42;;;;;;;5.20;100.00;103577.00;5033842;28;20493;-45
2022/01/14 08:50:36;;;;;;;100.93;41.97;;;;;;;5.30;100.00;103575.59;5032389;28;20065;-45
2022/01/14 08:53:04;;;;;;;96.75;38.88;;;;;;;5.38;100.00;103570.69;5032601;28;20026;-45
2022/01/14 08:55:29;;;;;;;82.78;39.45;;;;;;;5.40;100.00;103563.47;5033947;28;20444;-46
2022/01/14 08:57:55;;;;;;;83.85;37.33;;;;;;;5.49;99.74;103562.97;5032925;28;20030;-45
2022/01/14 09:00:22;;;;;;;77.78;35.50;;;;;;;5.53;99.31;103562.81;5032169;28;20029;-45
2022/01/14 09:02:47;;;;;;;90.97;37.03;;;;;;;5.52;98.66;103555.75;5031911;28;20397;-46
2022/01/14 09:05:13;;;;;;;84.05;35.67;;;;;;;5.53;98.30;103562.81;5033474;28;20284;-48
2022/01/14 09:07:39;;;;;;;85.57;34.55;;;;;;;5.58;98.03;103563.41;5032520;28;20034;-46
2022/01/14 09:10:06;;;;;;;85.95;35.20;;;;;;;5.68;98.24;103567.31;5033978;28;20087;-47
2022/01/14 09:12:32;;;;;;;77.20;34.40;;;;;;;5.73;97.71;103554.56;5033360;28;20069;-46
2022/01/14 09:14:59;;;;;;;81.18;34.42;;;;;;;5.69;96.98;103537.00;5049451;28;20048;-44
2022/01/14 09:17:25;;;;;;;83.67;34.13;;;;;;;5.75;96.91;103543.81;5032018;28;20033;-45
2022/01/14 09:19:50;;;;;;;69.03;29.90;;;;;;;5.80;96.25;103550.63;5031796;28;20040;-45
2022/01/14 09:22:17;;;;;;;70.80;29.23;;;;;;;5.84;95.96;103557.50;5033674;28;20036;-46
2022/01/14 09:24:44;;;;;;;68.30;29.10;;;;;;;5.91;94.85;103564.25;5033333;28;20052;-44
2022/01/14 09:27:09;;;;;;;77.82;28.60;;;;;;;6.02;93.96;103561.03;5033385;28;20489;-45
2022/01/14 09:29:35;;;;;;;64.28;27.38;;;;;;;6.01;93.33;103567.31;5033127;28;20030;-45
2022/01/14 09:32:00;;;;;;;68.15;29.05;;;;;;;5.91;93.30;103563.41;5033267;28;20115;-45
2022/01/14 09:34:25;;;;;;;70.13;27.33;;;;;;;5.88;93.50;103569.78;5033065;28;20057;-45
2022/01/14 09:36:51;;;;;;;69.57;27.35;;;;;;;5.88;93.95;103568.94;5048662;28;20430;-47
2022/01/14 09:39:17;;;;;;;61.15;28.20;;;;;;;5.94;93.52;103557.91;5042807;28;20041;-44
2022/01/14 09:41:42;;;;;;;63.20;25.48;;;;;;;5.93;93.07;103564.19;5033194;28;20018;-44
2022/01/14 09:44:07;;;;;;;71.40;27.20;;;;;;;6.00;92.46;103562.06;5032485;28;20029;-45
2022/01/14 09:46:33;;;;;;;65.25;26.13;;;;;;;5.98;92.49;103561.28;5033119;28;20474;-46
2022/01/14 09:48:58;;;;;;;59.78;25.60;;;;;;;6.01;92.30;103569.16;5032998;28;20034;-44
2022/01/14 09:51:24;;;;;;;59.42;26.15;;;;;;;6.03;92.37;103561.88;5031131;28;20025;-45
2022/01/14 09:53:50;;;;;;;68.93;28.08;;;;;;;6.03;92.79;103556.53;5033200;28;20036;-45
2022/01/14 09:56:17;;;;;;;73.95;30.10;;;;;;;6.03;93.23;103564.56;5031687;28;20026;-44
2022/01/14 09:58:47;;;;;;;66.07;29.20;;;;;;;6.05;93.41;103565.34;5033389;28;20052;-44
2022/01/14 10:01:17;;;;;;;68.15;27.95;;;;;;;6.09;93.43;103566.91;5031635;28;20029;-45
2022/01/14 10:04:01;;;;;;;77.75;30.08;;;;;;;6.09;93.41;103572.25;5030528;28;20025;-46
2022/01/14 10:06:40;;;;;;;67.93;27.88;;;;;;;6.19;93.41;103573.47;5034762;28;20076;-45
2022/01/14 10:09:20;;;;;;;54.30;25.38;;;;;;;6.18;92.43;103571.72;5041417;28;20037;-44
2022/01/14 10:12:13;;;;;;;61.83;27.90;;;;;;;6.26;92.10;103577.50;5031583;28;20485;-46
2022/01/14 10:14:43;;;;;;;61.08;26.23;;;;;;;6.22;92.34;103572.44;5030553;28;20076;-47
2022/01/14 10:17:10;;;;;;;65.30;25.38;;;;;;;6.21;92.42;103571.53;5032012;28;20403;-44
2022/01/14 10:19:37;;;;;;;60.47;24.75;;;;;;;6.24;92.26;103576.75;5027727;28;20104;-44
2022/01/14 10:22:26;;;;;;;60.92;24.08;;;;;;;6.36;91.68;103576.03;5047987;28;20033;-45
2022/01/14 10:25:00;;;;;;;57.28;23.00;;;;;;;6.40;91.26;103575.84;5032927;28;20406;-44
2022/01/14 10:27:34;;;;;;;73.78;25.83;;;;;;;6.40;91.12;103570.50;5031191;28;20029;-45
2022/01/14 10:30:18;;;;;;;49.53;21.58;;;;;;;6.37;91.09;103571.53;5024574;28;20116;-47
2022/01/14 10:32:46;;;;;;;63.22;22.70;;;;;;;6.53;90.56;103576.88;5030012;28;20491;-44
2022/01/14 10:35:14;;;;;;;53.92;23.25;;;;;;;6.46;90.40;103572.84;5031660;28;20025;-45
2022/01/14 10:37:39;;;;;;;64.88;24.10;;;;;;;6.48;91.29;103578.97;5031155;28;20024;-45
2022/01/14 10:40:22;;;;;;;52.67;19.90;;;;;;;6.57;90.85;103583.78;5030345;28;20175;-43
2022/01/14 10:42:50;;;;;;;44.35;16.30;;;;;;;6.66;87.96;103575.25;5032356;28;20060;-44
2022/01/14 10:45:20;;;;;;;;;;;;;;;6.63;87.74;103567.38;5031079;28;20108;-45
2022/01/14 10:48:03;;;;;;;61.83;19.40;;;;;;;6.60;88.52;103578.25;5032716;28;19988;-46
2022/01/14 10:50:35;;;;;;;55.92;20.40;;;;;;;6.70;88.74;103579.44;5029832;28;20036;-45
2022/01/14 10:53:01;;;;;;;59.92;18.02;;;;;;;6.80;87.93;103579.78;5031044;28;20108;-44
2022/01/14 10:55:38;;;;;;;45.03;17.55;;;;;;;6.81;87.64;103573.47;5031599;28;20129;-44
2022/01/14 10:58:12;;;;;;;45.10;15.52;;;;;;;6.88;87.49;103574.84;5030237;28;20021;-43
2022/01/14 11:00:43;;;;;;;34.63;15.52;;;;;;;6.90;87.21;103564.91;5024123;28;20052;-44
2022/01/14 11:03:10;;;;;;;48.47;16.58;;;;;;;6.91;87.54;103560.41;5031883;28;20037;-44
2022/01/14 11:05:35;;;;;;;46.58;17.45;;;;;;;6.99;87.47;103558.13;5032383;28;20049;-45
2022/01/14 11:08:02;;;;;;;49.13;17.98;;;;;;;7.09;87.21;103550.41;5030851;28;20366;-46
2022/01/14 11:10:33;;;;;;;56.78;20.27;;;;;;;7.10;87.02;103555.66;5031133;28;20033;-47
2022/01/14 11:13:01;;;;;;;52.28;20.23;;;;;;;7.07;87.25;103546.97;5031253;28;20535;-45
2022/01/14 11:15:28;;;;;;;55.17;17.70;;;;;;;7.10;87.04;103549.44;5031266;28;20454;-46
2022/01/14 11:17:56;;;;;;;54.20;16.98;;;;;;;7.07;85.44;103539.78;5031671;28;20025;-46
2022/01/14 11:23:14;;;;;;;36.15;13.98;;;;;;;7.08;86.04;103541.50;5038517;28;20478;-45
2022/01/14 11:23:14;;;;;;;49.67;14.82;;;;;;;7.07;84.61;103545.13;5032332;28;20107;-45
2022/01/14 11:26:04;;;;;;;44.17;14.27;;;;;;;7.22;84.01;103543.34;5031408;28;20034;-45
2022/01/14 11:28:34;;;;;;;40.15;15.45;;;;;;;7.27;84.51;103551.97;5033535;28;20512;-46
2022/01/14 11:30:59;;;;;;;42.55;16.60;;;;;;;7.29;84.53;103549.19;5033779;28;20026;-44
2022/01/14 11:33:39;;;;;;;42.35;15.50;;;;;;;7.28;84.73;103552.84;5030284;28;20041;-43